sensor_id;sensor_type;location;lat;lon;timestamp;P1;durP1;ratioP1;P2;durP2;ratioP2
32790;SDS011;19143;59.322;14.502;2023-04-06T00:00:13;2.67;;;2.43;;
32790;SDS011;19143;59.322;14.502;2023-04-06T00:02:44;4.90;;;2.30;;
32790;SDS011;19143;59.322;14.502;2023-04-06T00:05:10;2.20;;;2.10;;
32790;SDS011;19143;59.322;14.502;2023-04-06T00:07:37;4.37;;;2.10;;
32790;SDS011;19143;59.322;14.502;2023-04-06T00:10:04;2.97;;;2.47;;
32790;SDS011;19143;59.322;14.502;2023-04-06T00:12:31;2.00;;;1.90;;
32790;SDS011;19143;59.322;14.502;2023-04-06T00:14:58;2.40;;;2.20;;
32790;SDS011;19143;59.322;14.502;2023-04-06T00:17:27;2.73;;;2.30;;
32790;SDS011;19143;59.322;14.502;2023-04-06T00:19:55;2.80;;;2.10;;
32790;SDS011;19143;59.322;14.502;2023-04-06T00:22:21;2.00;;;1.90;;
32790;SDS011;19143;59.322;14.502;2023-04-06T00:24:49;2.00;;;1.90;;
32790;SDS011;19143;59.322;14.502;2023-04-06T00:27:15;1.83;;;1.73;;
32790;SDS011;19143;59.322;14.502;2023-04-06T00:29:43;2.13;;;1.87;;
32790;SDS011;19143;59.322;14.502;2023-04-06T00:32:09;2.00;;;1.90;;
32790;SDS011;19143;59.322;14.502;2023-04-06T00:34:38;2.10;;;2.00;;
32790;SDS011;19143;59.322;14.502;2023-04-06T00:37:05;2.10;;;1.97;;
32790;SDS011;19143;59.322;14.502;2023-04-06T00:39:38;2.30;;;2.20;;
32790;SDS011;19143;59.322;14.502;2023-04-06T00:42:07;3.87;;;1.90;;
32790;SDS011;19143;59.322;14.502;2023-04-06T00:44:36;2.30;;;2.10;;
32790;SDS011;19143;59.322;14.502;2023-04-06T00:47:03;1.97;;;1.87;;
32790;SDS011;19143;59.322;14.502;2023-04-06T00:49:30;2.80;;;2.20;;
32790;SDS011;19143;59.322;14.502;2023-04-06T00:51:58;1.80;;;1.73;;
32790;SDS011;19143;59.322;14.502;2023-04-06T00:54:25;5.70;;;1.80;;
32790;SDS011;19143;59.322;14.502;2023-04-06T00:56:51;2.60;;;1.80;;
32790;SDS011;19143;59.322;14.502;2023-04-06T00:59:18;1.60;;;1.60;;
32790;SDS011;19143;59.322;14.502;2023-04-06T01:01:45;3.03;;;1.90;;
32790;SDS011;19143;59.322;14.502;2023-04-06T01:04:11;2.30;;;2.10;;
32790;SDS011;19143;59.322;14.502;2023-04-06T01:06:38;3.23;;;1.70;;
32790;SDS011;19143;59.322;14.502;2023-04-06T01:09:06;2.00;;;1.80;;
32790;SDS011;19143;59.322;14.502;2023-04-06T01:11:33;2.10;;;2.00;;
32790;SDS011;19143;59.322;14.502;2023-04-06T01:14:00;1.93;;;1.83;;
32790;SDS011;19143;59.322;14.502;2023-04-06T01:16:26;2.47;;;2.20;;
32790;SDS011;19143;59.322;14.502;2023-04-06T01:18:53;2.20;;;2.10;;
32790;SDS011;19143;59.322;14.502;2023-04-06T01:21:20;2.63;;;2.47;;
32790;SDS011;19143;59.322;14.502;2023-04-06T01:23:49;2.70;;;2.50;;
32790;SDS011;19143;59.322;14.502;2023-04-06T01:26:15;2.37;;;2.17;;
32790;SDS011;19143;59.322;14.502;2023-04-06T01:28:42;2.40;;;2.20;;
32790;SDS011;19143;59.322;14.502;2023-04-06T01:31:10;3.50;;;2.33;;
32790;SDS011;19143;59.322;14.502;2023-04-06T01:33:37;2.70;;;2.50;;
32790;SDS011;19143;59.322;14.502;2023-04-06T01:36:03;3.50;;;2.40;;
32790;SDS011;19143;59.322;14.502;2023-04-06T01:38:30;2.77;;;2.57;;
32790;SDS011;19143;59.322;14.502;2023-04-06T01:40:59;2.00;;;1.90;;
32790;SDS011;19143;59.322;14.502;2023-04-06T01:43:25;2.80;;;2.20;;
32790;SDS011;19143;59.322;14.502;2023-04-06T01:45:52;3.47;;;2.17;;
32790;SDS011;19143;59.322;14.502;2023-04-06T01:48:19;2.37;;;2.27;;
32790;SDS011;19143;59.322;14.502;2023-04-06T01:50:45;1.83;;;1.73;;
32790;SDS011;19143;59.322;14.502;2023-04-06T01:53:12;2.57;;;2.47;;
32790;SDS011;19143;59.322;14.502;2023-04-06T01:55:39;2.47;;;2.17;;
32790;SDS011;19143;59.322;14.502;2023-04-06T01:58:07;2.40;;;2.30;;
32790;SDS011;19143;59.322;14.502;2023-04-06T02:00:34;4.17;;;2.40;;
32790;SDS011;19143;59.322;14.502;2023-04-06T02:03:00;1.87;;;1.80;;
32790;SDS011;19143;59.322;14.502;2023-04-06T02:05:29;2.60;;;2.50;;
32790;SDS011;19143;59.322;14.502;2023-04-06T02:07:55;2.33;;;2.20;;
32790;SDS011;19143;59.322;14.502;2023-04-06T02:10:22;2.50;;;2.30;;
32790;SDS011;19143;59.322;14.502;2023-04-06T02:12:49;3.93;;;2.63;;
32790;SDS011;19143;59.322;14.502;2023-04-06T02:15:18;2.00;;;1.90;;
32790;SDS011;19143;59.322;14.502;2023-04-06T02:17:44;2.50;;;2.23;;
32790;SDS011;19143;59.322;14.502;2023-04-06T02:20:12;2.37;;;2.10;;
32790;SDS011;19143;59.322;14.502;2023-04-06T02:22:38;2.10;;;1.90;;
32790;SDS011;19143;59.322;14.502;2023-04-06T02:25:05;2.57;;;2.37;;
32790;SDS011;19143;59.322;14.502;2023-04-06T02:27:32;2.27;;;2.07;;
32790;SDS011;19143;59.322;14.502;2023-04-06T02:29:59;2.20;;;2.10;;
32790;SDS011;19143;59.322;14.502;2023-04-06T02:32:27;2.17;;;1.93;;
32790;SDS011;19143;59.322;14.502;2023-04-06T02:34:54;2.50;;;2.30;;
32790;SDS011;19143;59.322;14.502;2023-04-06T02:37:21;2.20;;;2.00;;
32790;SDS011;19143;59.322;14.502;2023-04-06T02:39:49;2.27;;;2.17;;
32790;SDS011;19143;59.322;14.502;2023-04-06T02:42:15;2.40;;;2.20;;
32790;SDS011;19143;59.322;14.502;2023-04-06T02:44:42;1.77;;;1.70;;
32790;SDS011;19143;59.322;14.502;2023-04-06T02:47:09;2.10;;;2.00;;
32790;SDS011;19143;59.322;14.502;2023-04-06T02:49:37;2.30;;;2.10;;
32790;SDS011;19143;59.322;14.502;2023-04-06T02:52:04;2.23;;;2.13;;
32790;SDS011;19143;59.322;14.502;2023-04-06T02:54:30;3.57;;;2.43;;
32790;SDS011;19143;59.322;14.502;2023-04-06T02:56:57;2.80;;;2.07;;
32790;SDS011;19143;59.322;14.502;2023-04-06T02:59:24;2.67;;;2.20;;
32790;SDS011;19143;59.322;14.502;2023-04-06T03:01:51;2.30;;;2.10;;
32790;SDS011;19143;59.322;14.502;2023-04-06T03:04:18;2.30;;;1.80;;
32790;SDS011;19143;59.322;14.502;2023-04-06T03:06:48;1.90;;;1.80;;
32790;SDS011;19143;59.322;14.502;2023-04-06T03:09:15;2.70;;;2.30;;
32790;SDS011;19143;59.322;14.502;2023-04-06T03:11:42;2.47;;;2.30;;
32790;SDS011;19143;59.322;14.502;2023-04-06T03:14:08;2.40;;;2.20;;
32790;SDS011;19143;59.322;14.502;2023-04-06T03:16:35;2.20;;;2.10;;
32790;SDS011;19143;59.322;14.502;2023-04-06T03:19:02;2.87;;;2.10;;
32790;SDS011;19143;59.322;14.502;2023-04-06T03:21:29;1.70;;;1.60;;
32790;SDS011;19143;59.322;14.502;2023-04-06T03:23:57;2.37;;;2.27;;
32790;SDS011;19143;59.322;14.502;2023-04-06T03:26:24;2.43;;;1.77;;
32790;SDS011;19143;59.322;14.502;2023-04-06T03:28:51;1.93;;;1.83;;
32790;SDS011;19143;59.322;14.502;2023-04-06T03:31:17;1.93;;;1.77;;
32790;SDS011;19143;59.322;14.502;2023-04-06T03:33:44;1.90;;;1.67;;
32790;SDS011;19143;59.322;14.502;2023-04-06T03:36:11;1.83;;;1.73;;
32790;SDS011;19143;59.322;14.502;2023-04-06T03:38:37;1.97;;;1.87;;
32790;SDS011;19143;59.322;14.502;2023-04-06T03:41:06;4.67;;;1.97;;
32790;SDS011;19143;59.322;14.502;2023-04-06T03:43:33;2.23;;;2.10;;
32790;SDS011;19143;59.322;14.502;2023-04-06T03:46:00;2.10;;;1.93;;
32790;SDS011;19143;59.322;14.502;2023-04-06T03:48:26;2.30;;;2.20;;
32790;SDS011;19143;59.322;14.502;2023-04-06T03:50:53;2.47;;;2.27;;
32790;SDS011;19143;59.322;14.502;2023-04-06T03:53:20;2.00;;;1.80;;
32790;SDS011;19143;59.322;14.502;2023-04-06T03:55:46;1.33;;;1.33;;
32790;SDS011;19143;59.322;14.502;2023-04-06T03:58:15;1.80;;;1.70;;
32790;SDS011;19143;59.322;14.502;2023-04-06T04:00:41;1.87;;;1.80;;
32790;SDS011;19143;59.322;14.502;2023-04-06T04:03:08;2.17;;;2.07;;
32790;SDS011;19143;59.322;14.502;2023-04-06T04:05:38;2.00;;;1.90;;
32790;SDS011;19143;59.322;14.502;2023-04-06T04:08:05;1.83;;;1.73;;
32790;SDS011;19143;59.322;14.502;2023-04-06T04:10:32;1.97;;;1.70;;
32790;SDS011;19143;59.322;14.502;2023-04-06T04:12:58;2.30;;;2.10;;
32790;SDS011;19143;59.322;14.502;2023-04-06T04:15:27;2.13;;;1.87;;
32790;SDS011;19143;59.322;14.502;2023-04-06T04:17:53;2.30;;;1.67;;
32790;SDS011;19143;59.322;14.502;2023-04-06T04:20:20;1.73;;;1.67;;
32790;SDS011;19143;59.322;14.502;2023-04-06T04:22:47;2.10;;;2.00;;
32790;SDS011;19143;59.322;14.502;2023-04-06T04:25:13;1.93;;;1.83;;
32790;SDS011;19143;59.322;14.502;2023-04-06T04:27:47;2.00;;;1.90;;
32790;SDS011;19143;59.322;14.502;2023-04-06T04:30:14;2.10;;;2.00;;
32790;SDS011;19143;59.322;14.502;2023-04-06T04:32:42;1.90;;;1.80;;
32790;SDS011;19143;59.322;14.502;2023-04-06T04:35:09;1.97;;;1.90;;
32790;SDS011;19143;59.322;14.502;2023-04-06T04:37:36;1.83;;;1.73;;
32790;SDS011;19143;59.322;14.502;2023-04-06T04:40:03;2.63;;;1.90;;
32790;SDS011;19143;59.322;14.502;2023-04-06T04:42:30;2.20;;;2.00;;
32790;SDS011;19143;59.322;14.502;2023-04-06T04:44:56;2.07;;;1.97;;
32790;SDS011;19143;59.322;14.502;2023-04-06T04:47:23;2.83;;;1.80;;
32790;SDS011;19143;59.322;14.502;2023-04-06T04:49:51;2.23;;;1.47;;
32790;SDS011;19143;59.322;14.502;2023-04-06T04:52:18;2.00;;;1.70;;
32790;SDS011;19143;59.322;14.502;2023-04-06T04:54:45;2.00;;;1.90;;
32790;SDS011;19143;59.322;14.502;2023-04-06T04:57:12;1.80;;;1.70;;
32790;SDS011;19143;59.322;14.502;2023-04-06T04:59:39;1.80;;;1.70;;
32790;SDS011;19143;59.322;14.502;2023-04-06T05:02:05;1.80;;;1.70;;
32790;SDS011;19143;59.322;14.502;2023-04-06T05:04:32;2.50;;;2.30;;
32790;SDS011;19143;59.322;14.502;2023-04-06T05:07:03;1.60;;;1.60;;
32790;SDS011;19143;59.322;14.502;2023-04-06T05:09:31;1.43;;;1.43;;
32790;SDS011;19143;59.322;14.502;2023-04-06T05:11:57;1.87;;;1.77;;
32790;SDS011;19143;59.322;14.502;2023-04-06T05:14:24;1.60;;;1.60;;
32790;SDS011;19143;59.322;14.502;2023-04-06T05:16:51;1.90;;;1.80;;
32790;SDS011;19143;59.322;14.502;2023-04-06T05:19:17;1.50;;;1.40;;
32790;SDS011;19143;59.322;14.502;2023-04-06T05:21:44;1.67;;;1.57;;
32790;SDS011;19143;59.322;14.502;2023-04-06T05:24:12;1.10;;;1.10;;
32790;SDS011;19143;59.322;14.502;2023-04-06T05:26:39;1.00;;;1.00;;
32790;SDS011;19143;59.322;14.502;2023-04-06T05:29:06;1.00;;;1.00;;
32790;SDS011;19143;59.322;14.502;2023-04-06T05:31:34;1.20;;;1.20;;
32790;SDS011;19143;59.322;14.502;2023-04-06T05:34:01;1.40;;;1.40;;
32790;SDS011;19143;59.322;14.502;2023-04-06T05:36:27;1.40;;;1.40;;
32790;SDS011;19143;59.322;14.502;2023-04-06T05:38:55;1.40;;;1.40;;
32790;SDS011;19143;59.322;14.502;2023-04-06T05:41:23;1.30;;;1.30;;
32790;SDS011;19143;59.322;14.502;2023-04-06T05:43:50;1.70;;;1.60;;
32790;SDS011;19143;59.322;14.502;2023-04-06T05:46:17;3.33;;;1.80;;
32790;SDS011;19143;59.322;14.502;2023-04-06T05:48:44;1.80;;;1.70;;
32790;SDS011;19143;59.322;14.502;2023-04-06T05:51:11;1.60;;;1.50;;
32790;SDS011;19143;59.322;14.502;2023-04-06T05:53:38;1.40;;;1.40;;
32790;SDS011;19143;59.322;14.502;2023-04-06T05:56:05;1.70;;;1.60;;
32790;SDS011;19143;59.322;14.502;2023-04-06T05:58:34;1.70;;;1.60;;
32790;SDS011;19143;59.322;14.502;2023-04-06T06:01:01;2.40;;;1.40;;
32790;SDS011;19143;59.322;14.502;2023-04-06T06:03:28;1.37;;;1.27;;
32790;SDS011;19143;59.322;14.502;2023-04-06T06:05:58;2.47;;;1.70;;
32790;SDS011;19143;59.322;14.502;2023-04-06T06:08:25;1.87;;;1.50;;
32790;SDS011;19143;59.322;14.502;2023-04-06T06:10:52;2.10;;;2.00;;
32790;SDS011;19143;59.322;14.502;2023-04-06T06:13:19;1.53;;;1.53;;
32790;SDS011;19143;59.322;14.502;2023-04-06T06:15:47;1.50;;;1.40;;
32790;SDS011;19143;59.322;14.502;2023-04-06T06:18:13;5.10;;;1.93;;
32790;SDS011;19143;59.322;14.502;2023-04-06T06:20:41;1.83;;;1.60;;
32790;SDS011;19143;59.322;14.502;2023-04-06T06:23:08;1.73;;;1.43;;
32790;SDS011;19143;59.322;14.502;2023-04-06T06:25:34;1.73;;;1.60;;
32790;SDS011;19143;59.322;14.502;2023-04-06T06:28:01;1.50;;;1.40;;
32790;SDS011;19143;59.322;14.502;2023-04-06T06:30:28;1.77;;;1.67;;
32790;SDS011;19143;59.322;14.502;2023-04-06T06:32:56;1.57;;;1.53;;
32790;SDS011;19143;59.322;14.502;2023-04-06T06:35:23;1.50;;;1.40;;
32790;SDS011;19143;59.322;14.502;2023-04-06T06:37:49;1.63;;;1.33;;
32790;SDS011;19143;59.322;14.502;2023-04-06T06:40:16;1.43;;;1.43;;
32790;SDS011;19143;59.322;14.502;2023-04-06T06:42:43;1.40;;;1.40;;
32790;SDS011;19143;59.322;14.502;2023-04-06T06:45:10;1.50;;;1.40;;
32790;SDS011;19143;59.322;14.502;2023-04-06T06:47:36;3.47;;;1.43;;
32790;SDS011;19143;59.322;14.502;2023-04-06T06:50:05;1.30;;;1.30;;
32790;SDS011;19143;59.322;14.502;2023-04-06T06:52:32;1.40;;;1.40;;
32790;SDS011;19143;59.322;14.502;2023-04-06T06:54:59;1.80;;;1.70;;
32790;SDS011;19143;59.322;14.502;2023-04-06T06:57:26;1.13;;;1.07;;
32790;SDS011;19143;59.322;14.502;2023-04-06T06:59:53;1.40;;;1.30;;
32790;SDS011;19143;59.322;14.502;2023-04-06T07:02:20;1.33;;;1.30;;
32790;SDS011;19143;59.322;14.502;2023-04-06T07:04:47;1.40;;;1.40;;
32790;SDS011;19143;59.322;14.502;2023-04-06T07:07:15;1.07;;;1.07;;
32790;SDS011;19143;59.322;14.502;2023-04-06T07:09:42;1.50;;;1.40;;
32790;SDS011;19143;59.322;14.502;2023-04-06T07:12:09;1.20;;;1.20;;
32790;SDS011;19143;59.322;14.502;2023-04-06T07:14:35;1.30;;;1.30;;
32790;SDS011;19143;59.322;14.502;2023-04-06T07:17:03;1.10;;;1.10;;
32790;SDS011;19143;59.322;14.502;2023-04-06T07:19:29;1.17;;;1.17;;
32790;SDS011;19143;59.322;14.502;2023-04-06T07:21:56;1.20;;;1.10;;
32790;SDS011;19143;59.322;14.502;2023-04-06T07:24:24;2.20;;;1.33;;
32790;SDS011;19143;59.322;14.502;2023-04-06T07:26:51;1.10;;;1.10;;
32790;SDS011;19143;59.322;14.502;2023-04-06T07:29:18;1.33;;;1.30;;
32790;SDS011;19143;59.322;14.502;2023-04-06T07:31:44;3.40;;;1.27;;
32790;SDS011;19143;59.322;14.502;2023-04-06T07:34:11;1.07;;;1.07;;
32790;SDS011;19143;59.322;14.502;2023-04-06T07:36:38;1.30;;;1.30;;
32790;SDS011;19143;59.322;14.502;2023-04-06T07:39:05;1.40;;;1.30;;
32790;SDS011;19143;59.322;14.502;2023-04-06T07:41:34;6.07;;;1.50;;
32790;SDS011;19143;59.322;14.502;2023-04-06T07:44:01;1.20;;;1.20;;
32790;SDS011;19143;59.322;14.502;2023-04-06T07:46:27;1.30;;;1.20;;
32790;SDS011;19143;59.322;14.502;2023-04-06T07:48:56;1.70;;;1.20;;
32790;SDS011;19143;59.322;14.502;2023-04-06T07:51:23;1.10;;;1.00;;
32790;SDS011;19143;59.322;14.502;2023-04-06T07:53:51;1.27;;;1.27;;
32790;SDS011;19143;59.322;14.502;2023-04-06T07:56:18;1.73;;;1.53;;
32790;SDS011;19143;59.322;14.502;2023-04-06T07:58:47;2.63;;;1.10;;
32790;SDS011;19143;59.322;14.502;2023-04-06T08:01:15;1.20;;;1.20;;
32790;SDS011;19143;59.322;14.502;2023-04-06T08:03:42;1.40;;;1.40;;
32790;SDS011;19143;59.322;14.502;2023-04-06T08:06:09;1.30;;;1.30;;
32790;SDS011;19143;59.322;14.502;2023-04-06T08:08:36;1.50;;;1.30;;
32790;SDS011;19143;59.322;14.502;2023-04-06T08:11:02;1.17;;;1.17;;
32790;SDS011;19143;59.322;14.502;2023-04-06T08:13:29;1.93;;;1.60;;
32790;SDS011;19143;59.322;14.502;2023-04-06T08:15:58;1.10;;;1.10;;
32790;SDS011;19143;59.322;14.502;2023-04-06T08:18:25;2.40;;;1.60;;
32790;SDS011;19143;59.322;14.502;2023-04-06T08:20:52;1.87;;;1.77;;
32790;SDS011;19143;59.322;14.502;2023-04-06T08:23:18;1.33;;;1.30;;
32790;SDS011;19143;59.322;14.502;2023-04-06T08:25:46;1.77;;;1.60;;
32790;SDS011;19143;59.322;14.502;2023-04-06T08:28:13;3.07;;;1.70;;
32790;SDS011;19143;59.322;14.502;2023-04-06T08:30:39;1.90;;;1.30;;
32790;SDS011;19143;59.322;14.502;2023-04-06T08:33:08;2.50;;;1.70;;
32790;SDS011;19143;59.322;14.502;2023-04-06T08:35:35;1.77;;;1.67;;
32790;SDS011;19143;59.322;14.502;2023-04-06T08:38:02;4.10;;;1.67;;
32790;SDS011;19143;59.322;14.502;2023-04-06T08:40:29;2.10;;;2.00;;
32790;SDS011;19143;59.322;14.502;2023-04-06T08:42:56;2.67;;;1.80;;
32790;SDS011;19143;59.322;14.502;2023-04-06T08:45:22;2.30;;;1.90;;
32790;SDS011;19143;59.322;14.502;2023-04-06T08:47:49;1.60;;;1.50;;
32790;SDS011;19143;59.322;14.502;2023-04-06T08:50:18;1.93;;;1.83;;
32790;SDS011;19143;59.322;14.502;2023-04-06T08:52:46;2.93;;;1.60;;
32790;SDS011;19143;59.322;14.502;2023-04-06T08:55:13;1.80;;;1.70;;
32790;SDS011;19143;59.322;14.502;2023-04-06T08:57:40;2.00;;;1.90;;
32790;SDS011;19143;59.322;14.502;2023-04-06T09:00:08;3.07;;;1.97;;
32790;SDS011;19143;59.322;14.502;2023-04-06T09:02:36;2.23;;;2.00;;
32790;SDS011;19143;59.322;14.502;2023-04-06T09:05:04;11.23;;;2.23;;
32790;SDS011;19143;59.322;14.502;2023-04-06T09:07:33;2.80;;;1.40;;
32790;SDS011;19143;59.322;14.502;2023-04-06T09:09:59;2.20;;;1.80;;
32790;SDS011;19143;59.322;14.502;2023-04-06T09:12:26;2.97;;;1.93;;
32790;SDS011;19143;59.322;14.502;2023-04-06T09:14:54;2.00;;;1.80;;
32790;SDS011;19143;59.322;14.502;2023-04-06T09:17:27;1.20;;;1.20;;
32790;SDS011;19143;59.322;14.502;2023-04-06T09:19:54;1.77;;;1.67;;
32790;SDS011;19143;59.322;14.502;2023-04-06T09:22:22;3.37;;;1.93;;
32790;SDS011;19143;59.322;14.502;2023-04-06T09:24:52;2.87;;;0.97;;
32790;SDS011;19143;59.322;14.502;2023-04-06T09:27:29;2.10;;;1.70;;
32790;SDS011;19143;59.322;14.502;2023-04-06T09:30:02;2.60;;;1.70;;
32790;SDS011;19143;59.322;14.502;2023-04-06T09:32:29;4.30;;;2.10;;
32790;SDS011;19143;59.322;14.502;2023-04-06T09:35:05;2.37;;;1.73;;
32790;SDS011;19143;59.322;14.502;2023-04-06T09:37:31;1.80;;;1.70;;
32790;SDS011;19143;59.322;14.502;2023-04-06T09:40:03;5.87;;;1.90;;
32790;SDS011;19143;59.322;14.502;2023-04-06T09:42:30;6.30;;;1.70;;
32790;SDS011;19143;59.322;14.502;2023-04-06T09:44:56;2.40;;;1.67;;
32790;SDS011;19143;59.322;14.502;2023-04-06T09:47:23;2.33;;;2.13;;
32790;SDS011;19143;59.322;14.502;2023-04-06T09:49:53;9.40;;;1.60;;
32790;SDS011;19143;59.322;14.502;2023-04-06T09:52:20;10.23;;;2.30;;
32790;SDS011;19143;59.322;14.502;2023-04-06T09:54:48;3.20;;;1.77;;
32790;SDS011;19143;59.322;14.502;2023-04-06T09:57:20;1.90;;;1.30;;
32790;SDS011;19143;59.322;14.502;2023-04-06T09:59:52;3.80;;;2.10;;
32790;SDS011;19143;59.322;14.502;2023-04-06T10:02:22;5.83;;;1.90;;
32790;SDS011;19143;59.322;14.502;2023-04-06T10:04:53;1.90;;;1.80;;
32790;SDS011;19143;59.322;14.502;2023-04-06T10:07:23;8.63;;;2.40;;
32790;SDS011;19143;59.322;14.502;2023-04-06T10:09:50;5.17;;;2.03;;
32790;SDS011;19143;59.322;14.502;2023-04-06T10:12:19;12.70;;;2.07;;
32790;SDS011;19143;59.322;14.502;2023-04-06T10:14:45;6.17;;;2.37;;
32790;SDS011;19143;59.322;14.502;2023-04-06T10:17:12;2.40;;;2.20;;
32790;SDS011;19143;59.322;14.502;2023-04-06T10:19:41;2.83;;;2.20;;
32790;SDS011;19143;59.322;14.502;2023-04-06T10:22:11;4.90;;;1.90;;
32790;SDS011;19143;59.322;14.502;2023-04-06T10:24:39;4.87;;;1.90;;
32790;SDS011;19143;59.322;14.502;2023-04-06T10:27:06;5.93;;;2.10;;
32790;SDS011;19143;59.322;14.502;2023-04-06T10:29:48;2.03;;;1.73;;
32790;SDS011;19143;59.322;14.502;2023-04-06T10:32:16;6.43;;;2.50;;
32790;SDS011;19143;59.322;14.502;2023-04-06T10:34:44;1.60;;;1.50;;
32790;SDS011;19143;59.322;14.502;2023-04-06T10:37:12;3.97;;;1.70;;
32790;SDS011;19143;59.322;14.502;2023-04-06T10:39:46;3.27;;;1.97;;
32790;SDS011;19143;59.322;14.502;2023-04-06T10:42:13;3.17;;;2.00;;
32790;SDS011;19143;59.322;14.502;2023-04-06T10:44:43;5.57;;;2.47;;
32790;SDS011;19143;59.322;14.502;2023-04-06T10:47:19;3.17;;;1.93;;
32790;SDS011;19143;59.322;14.502;2023-04-06T10:49:46;3.93;;;2.43;;
32790;SDS011;19143;59.322;14.502;2023-04-06T10:52:12;15.10;;;2.80;;
32790;SDS011;19143;59.322;14.502;2023-04-06T10:54:41;5.13;;;2.60;;
32790;SDS011;19143;59.322;14.502;2023-04-06T10:57:07;2.00;;;1.90;;
32790;SDS011;19143;59.322;14.502;2023-04-06T10:59:34;2.60;;;2.03;;
32790;SDS011;19143;59.322;14.502;2023-04-06T11:02:01;4.90;;;2.50;;
32790;SDS011;19143;59.322;14.502;2023-04-06T11:04:30;2.10;;;1.97;;
32790;SDS011;19143;59.322;14.502;2023-04-06T11:06:56;5.43;;;2.23;;
32790;SDS011;19143;59.322;14.502;2023-04-06T11:09:23;8.17;;;2.20;;
32790;SDS011;19143;59.322;14.502;2023-04-06T11:11:51;10.73;;;1.77;;
32790;SDS011;19143;59.322;14.502;2023-04-06T11:14:18;1.60;;;1.50;;
32790;SDS011;19143;59.322;14.502;2023-04-06T11:16:46;2.30;;;1.70;;
32790;SDS011;19143;59.322;14.502;2023-04-06T11:19:13;1.90;;;1.80;;
32790;SDS011;19143;59.322;14.502;2023-04-06T11:21:42;4.13;;;1.80;;
32790;SDS011;19143;59.322;14.502;2023-04-06T11:24:12;3.10;;;1.87;;
32790;SDS011;19143;59.322;14.502;2023-04-06T11:26:39;2.10;;;2.00;;
32790;SDS011;19143;59.322;14.502;2023-04-06T11:29:06;7.43;;;2.03;;
32790;SDS011;19143;59.322;14.502;2023-04-06T11:31:37;2.00;;;1.90;;
32790;SDS011;19143;59.322;14.502;2023-04-06T11:34:08;1.93;;;1.73;;
32790;SDS011;19143;59.322;14.502;2023-04-06T11:36:35;4.13;;;1.97;;
32790;SDS011;19143;59.322;14.502;2023-04-06T11:39:04;2.17;;;1.90;;
32790;SDS011;19143;59.322;14.502;2023-04-06T11:41:32;2.20;;;1.50;;
32790;SDS011;19143;59.322;14.502;2023-04-06T11:44:00;10.27;;;1.97;;
32790;SDS011;19143;59.322;14.502;2023-04-06T11:46:27;5.10;;;2.00;;
32790;SDS011;19143;59.322;14.502;2023-04-06T11:48:57;6.13;;;1.83;;
32790;SDS011;19143;59.322;14.502;2023-04-06T11:51:24;2.70;;;2.10;;
32790;SDS011;19143;59.322;14.502;2023-04-06T11:53:51;2.70;;;1.93;;
32790;SDS011;19143;59.322;14.502;2023-04-06T11:56:26;1.80;;;1.70;;
32790;SDS011;19143;59.322;14.502;2023-04-06T11:58:54;6.47;;;2.03;;
32790;SDS011;19143;59.322;14.502;2023-04-06T12:01:21;2.93;;;1.90;;
32790;SDS011;19143;59.322;14.502;2023-04-06T12:03:48;2.00;;;1.90;;
32790;SDS011;19143;59.322;14.502;2023-04-06T12:06:16;4.80;;;2.10;;
32790;SDS011;19143;59.322;14.502;2023-04-06T12:08:43;3.27;;;2.07;;
32790;SDS011;19143;59.322;14.502;2023-04-06T12:11:10;5.90;;;2.40;;
32790;SDS011;19143;59.322;14.502;2023-04-06T12:13:38;5.20;;;2.10;;
32790;SDS011;19143;59.322;14.502;2023-04-06T12:16:05;4.00;;;1.80;;
32790;SDS011;19143;59.322;14.502;2023-04-06T12:18:32;5.50;;;2.60;;
32790;SDS011;19143;59.322;14.502;2023-04-06T12:21:04;3.03;;;2.37;;
32790;SDS011;19143;59.322;14.502;2023-04-06T12:23:31;2.00;;;1.80;;
32790;SDS011;19143;59.322;14.502;2023-04-06T12:25:58;2.90;;;2.20;;
32790;SDS011;19143;59.322;14.502;2023-04-06T12:28:26;2.17;;;1.93;;
32790;SDS011;19143;59.322;14.502;2023-04-06T12:30:54;3.77;;;2.07;;
32790;SDS011;19143;59.322;14.502;2023-04-06T12:33:21;2.53;;;2.03;;
32790;SDS011;19143;59.322;14.502;2023-04-06T12:35:48;3.57;;;1.70;;
32790;SDS011;19143;59.322;14.502;2023-04-06T12:38:15;4.50;;;2.17;;
32790;SDS011;19143;59.322;14.502;2023-04-06T12:40:42;3.20;;;2.63;;
32790;SDS011;19143;59.322;14.502;2023-04-06T12:43:09;3.33;;;2.07;;
32790;SDS011;19143;59.322;14.502;2023-04-06T12:45:35;11.00;;;2.17;;
32790;SDS011;19143;59.322;14.502;2023-04-06T12:48:03;5.37;;;2.40;;
32790;SDS011;19143;59.322;14.502;2023-04-06T12:50:31;4.43;;;2.73;;
32790;SDS011;19143;59.322;14.502;2023-04-06T12:52:57;3.80;;;2.63;;
32790;SDS011;19143;59.322;14.502;2023-04-06T12:55:24;9.70;;;2.37;;
32790;SDS011;19143;59.322;14.502;2023-04-06T12:57:53;5.23;;;2.30;;
32790;SDS011;19143;59.322;14.502;2023-04-06T13:00:20;2.63;;;2.43;;
32790;SDS011;19143;59.322;14.502;2023-04-06T13:02:47;2.30;;;2.10;;
32790;SDS011;19143;59.322;14.502;2023-04-06T13:05:15;5.03;;;2.60;;
32790;SDS011;19143;59.322;14.502;2023-04-06T13:07:44;2.55;;;2.20;;
32790;SDS011;19143;59.322;14.502;2023-04-06T13:10:19;2.17;;;1.97;;
32790;SDS011;19143;59.322;14.502;2023-04-06T13:12:45;11.53;;;2.10;;
32790;SDS011;19143;59.322;14.502;2023-04-06T13:15:12;1.80;;;1.70;;
32790;SDS011;19143;59.322;14.502;2023-04-06T13:17:39;2.87;;;1.67;;
32790;SDS011;19143;59.322;14.502;2023-04-06T13:20:06;1.80;;;1.70;;
32790;SDS011;19143;59.322;14.502;2023-04-06T13:22:35;2.57;;;2.10;;
32790;SDS011;19143;59.322;14.502;2023-04-06T13:25:03;2.87;;;1.70;;
32790;SDS011;19143;59.322;14.502;2023-04-06T13:27:29;3.93;;;1.97;;
32790;SDS011;19143;59.322;14.502;2023-04-06T13:29:58;4.70;;;1.90;;
32790;SDS011;19143;59.322;14.502;2023-04-06T13:32:29;4.37;;;2.13;;
32790;SDS011;19143;59.322;14.502;2023-04-06T13:35:00;6.03;;;1.90;;
32790;SDS011;19143;59.322;14.502;2023-04-06T13:37:54;3.30;;;2.00;;
32790;SDS011;19143;59.322;14.502;2023-04-06T13:40:20;3.13;;;2.13;;
32790;SDS011;19143;59.322;14.502;2023-04-06T13:42:49;5.17;;;1.87;;
32790;SDS011;19143;59.322;14.502;2023-04-06T13:45:40;2.60;;;1.90;;
32790;SDS011;19143;59.322;14.502;2023-04-06T13:48:24;6.70;;;1.93;;
32790;SDS011;19143;59.322;14.502;2023-04-06T13:51:11;4.43;;;1.80;;
32790;SDS011;19143;59.322;14.502;2023-04-06T13:53:44;5.70;;;1.80;;
32790;SDS011;19143;59.322;14.502;2023-04-06T13:56:11;3.53;;;1.63;;
32790;SDS011;19143;59.322;14.502;2023-04-06T13:58:44;3.90;;;2.10;;
32790;SDS011;19143;59.322;14.502;2023-04-06T14:01:11;10.50;;;2.20;;
32790;SDS011;19143;59.322;14.502;2023-04-06T14:03:37;2.90;;;2.30;;
32790;SDS011;19143;59.322;14.502;2023-04-06T14:06:10;15.13;;;2.20;;
32790;SDS011;19143;59.322;14.502;2023-04-06T14:08:37;5.00;;;2.17;;
32790;SDS011;19143;59.322;14.502;2023-04-06T14:11:06;4.53;;;2.00;;
32790;SDS011;19143;59.322;14.502;2023-04-06T14:13:33;3.90;;;2.10;;
32790;SDS011;19143;59.322;14.502;2023-04-06T14:16:00;2.97;;;2.00;;
32790;SDS011;19143;59.322;14.502;2023-04-06T14:18:27;3.07;;;2.10;;
32790;SDS011;19143;59.322;14.502;2023-04-06T14:20:56;3.37;;;1.80;;
32790;SDS011;19143;59.322;14.502;2023-04-06T14:23:24;8.80;;;2.10;;
32790;SDS011;19143;59.322;14.502;2023-04-06T14:25:51;11.23;;;2.37;;
32790;SDS011;19143;59.322;14.502;2023-04-06T14:28:20;3.80;;;2.17;;
32790;SDS011;19143;59.322;14.502;2023-04-06T14:30:47;2.50;;;2.07;;
32790;SDS011;19143;59.322;14.502;2023-04-06T14:33:13;5.40;;;2.30;;
32790;SDS011;19143;59.322;14.502;2023-04-06T14:35:40;4.83;;;2.17;;